Etusivu
METAR-TAF:

METAR-TAF

Lentoasemat :

Kisarazu, Japani

Leveyspiiri: 35-24N, Pituuspiiri: 139-55E, korkeus merenpinnasta: 3 m

Tämänhetkinen sää

Tämä raportti tehtiin 8 tuntia ja 27 minuuttia sitten, kello 08.34 UTC
Tuuli 6 kn lounaasta
Lämpötila 24°C
Kosteus 74%
Ilmanpaine 1015 hPa
Näkyvyys 10 km tai enemmän
Muutamia pilviä 2500 ft:n korkeudessa
Hajonneita pilviä 3000 ft:n korkeudessa

METAR: RJTK 210834Z 23006KT 9999 FEW025 BKN030 24/19 Q1015 RMK 1CU025 5CU030 A2997

Aika: 02:01 (17:01 UTC)


TAF: puuttuu

Säähavainnot ja -ennusteet yli 4000 lentoasemalta (METAR- ja TAF-raportit).

Käytössä olevat sääasemat on merkitty karttaan keltaisilla ja punaisilla pisteillä.

Aseta hiiri pisteen päälle nähdäksesi sääaseman nimen.

Klikkaa sitten nähdäksesi säähavainnot ja -ennusteet.

Kartan vaihtaminen: klikkaa mustalla rastilla varustettuja vihreitä pisteitä, niin voit zoomata sisään; viivalla varustettua vihreää pistettä, niin voit zoomata ulos tai vihreitä nuolia, niin pääset viereisille kartoille.


METAR-TAF: